Cedar Hammock, Florida
Current Conditions -  °F | °C
As of 11:53 PM on Sunday 19 Oct 2014 (Local Time) from KSRQ Reporting Station
Clear Clear  
Wind Chill: 68°   Ceiling: Unl
Heat Index: 68°   Visibility: 10mi
Dew Point: 61°   Wind: 6mph
Humidity: 78%   Direction: 100°E
Pressure: 30.02"   Gusts: NA
Location:  27.4818°N, 82.584°W
Report Text: KSRQ 200353Z 10005KT 10SM CLR 20/16 A3002 RMK AO2 SLP165 T02000161
Loading
Personal Weather Stations






























Interactive Weather Map
Tropical Storm Tracking
New forecast layout! Learn more

10-Day Weather Forecast

Advertisements
Track Severe Weather on mobile